Time;durP1;ratioP1;P1;durP2;ratioP2;P2;SDS_P1;SDS_P2;PMS_P1;PMS_P2;Temp;Humidity;BMP_temperature;BMP_pressure;BME280_temperature;BME280_humidity;BME280_pressure;Samples;Min_cycle;Max_cycle;Signal;HPM_P1;HPM_P2
2022/04/30 00:01:03;;;;;;;23.05;14.80;;;;;;;13.44;59.27;99561.41;5267558;28;20052;-72
2022/04/30 00:03:54;;;;;;;17.67;13.48;;;;;;;13.40;58.03;99546.69;5265632;28;20051;-70
2022/04/30 00:06:45;;;;;;;21.73;14.82;;;;;;;13.52;58.97;99569.50;5267718;28;20059;-71
2022/04/30 00:09:38;;;;;;;17.63;13.93;;;;;;;13.46;60.96;99563.94;5267634;28;20066;-71
2022/04/30 00:12:31;;;;;;;23.27;16.67;;;;;;;13.67;61.14;99583.16;5266316;28;20051;-72
2022/04/30 00:15:22;;;;;;;23.70;16.98;;;;;;;13.81;60.86;99585.31;5266334;28;20060;-70
2022/04/30 00:18:12;;;;;;;29.75;16.73;;;;;;;13.46;61.58;99567.44;5261799;28;20146;-70
2022/04/30 00:21:02;;;;;;;25.90;14.93;;;;;;;13.44;61.34;99588.03;5247033;28;20067;-70
2022/04/30 00:23:53;;;;;;;23.27;15.00;;;;;;;13.50;60.93;99576.78;5247535;28;20439;-71
2022/04/30 00:26:43;;;;;;;27.13;14.43;;;;;;;13.56;61.60;99572.69;5247173;28;20633;-70
2022/04/30 00:29:33;;;;;;;21.85;13.55;;;;;;;13.68;61.01;99578.69;5247320;28;20094;-70
2022/04/30 00:32:24;;;;;;;26.35;13.90;;;;;;;13.55;61.28;99563.03;5248587;28;20048;-70
2022/04/30 00:35:15;;;;;;;18.55;13.15;;;;;;;13.42;59.93;99541.25;5247128;28;20574;-70
2022/04/30 00:38:05;;;;;;;20.65;13.65;;;;;;;13.61;60.99;99567.78;5245846;28;20114;-70
2022/04/30 00:40:55;;;;;;;17.30;13.23;;;;;;;13.55;59.63;99555.88;5261941;28;20533;-70
2022/04/30 00:43:48;;;;;;;18.85;13.50;;;;;;;13.65;58.33;99568.31;5266801;28;20044;-70
2022/04/30 00:46:38;;;;;;;18.67;12.25;;;;;;;13.63;58.72;99571.94;5264868;28;20044;-70
2022/04/30 00:49:28;;;;;;;22.30;13.50;;;;;;;13.62;58.47;99562.28;5246876;28;20068;-70
2022/04/30 00:52:21;;;;;;;16.90;13.00;;;;;;;13.78;58.27;99571.47;5246498;28;20521;-70
2022/04/30 00:55:11;;;;;;;20.70;12.30;;;;;;;13.61;58.28;99567.78;5246545;28;20162;-70
2022/04/30 00:58:05;;;;;;;20.33;11.52;;;;;;;13.57;58.14;99563.72;5246418;28;20158;-70
2022/04/30 01:00:55;;;;;;;18.43;12.10;;;;;;;13.63;58.04;99581.78;5249860;28;20055;-70
2022/04/30 01:04:03;;;;;;;17.50;11.82;;;;;;;13.67;57.95;99574.31;5261643;28;20093;-70
2022/04/30 01:07:02;;;;;;;18.23;12.23;;;;;;;13.51;59.30;99581.16;5252905;28;20717;-70
2022/04/30 01:09:53;;;;;;;20.88;12.52;;;;;;;13.46;59.23;99572.75;5266007;28;20113;-70
2022/04/30 01:12:45;;;;;;;15.93;12.38;;;;;;;13.57;58.95;99572.53;5266575;28;20055;-70
2022/04/30 01:15:37;;;;;;;16.58;13.00;;;;;;;13.55;58.44;99577.19;5266472;28;20054;-70
2022/04/30 01:18:27;;;;;;;19.85;12.27;;;;;;;13.60;58.05;99582.91;5266116;28;20059;-70
2022/04/30 01:21:21;;;;;;;18.45;12.43;;;;;;;13.71;58.25;99573.88;5248480;28;20048;-70
2022/04/30 01:24:11;;;;;;;20.55;12.52;;;;;;;13.66;58.24;99575.31;5246140;28;20561;-70
2022/04/30 01:27:02;;;;;;;16.77;12.65;;;;;;;13.59;58.77;99570.56;5245958;28;20175;-70
2022/04/30 01:30:02;;;;;;;24.55;13.00;;;;;;;13.65;58.34;99571.81;5246201;28;20052;-70
2022/04/30 01:39:10;;;;;;;19.58;12.55;;;;;;;13.45;58.99;99549.78;5265965;28;20113;-70
2022/04/30 01:42:10;;;;;;;25.50;13.80;;;;;;;13.55;58.86;99563.88;5265536;28;20075;-70
2022/04/30 01:45:00;;;;;;;22.23;12.93;;;;;;;13.54;59.69;99562.22;5265882;28;20055;-70
2022/04/30 01:47:51;;;;;;;23.00;14.30;;;;;;;13.49;59.79;99550.31;5253623;28;20558;-70
2022/04/30 01:50:41;;;;;;;23.58;15.27;;;;;;;13.45;60.33;99551.59;5245364;28;20044;-70
2022/04/30 01:53:32;;;;;;;25.38;16.10;;;;;;;13.54;59.83;99543.56;5244412;28;20087;-70
2022/04/30 01:56:22;;;;;;;26.50;16.23;;;;;;;13.39;60.77;99545.03;5258875;28;21028;-70
2022/04/30 01:59:30;;;;;;;24.63;15.55;;;;;;;13.56;60.38;99535.41;5264172;28;20178;-70
2022/04/30 02:02:23;;;;;;;23.83;15.73;;;;;;;13.63;59.63;99537.31;5244980;28;20510;-70
2022/04/30 02:05:14;;;;;;;25.70;16.52;;;;;;;13.56;59.64;99538.91;5245068;28;20063;-70
2022/04/30 02:08:12;;;;;;;29.67;15.90;;;;;;;13.61;59.98;99539.31;5243978;28;20059;-70
2022/04/30 02:11:03;;;;;;;26.40;16.35;;;;;;;13.43;60.82;99522.44;5258235;28;20571;-70
2022/04/30 02:13:58;;;;;;;31.20;17.38;;;;;;;13.65;60.14;99517.69;5249792;28;20161;-70
2022/04/30 02:16:49;;;;;;;28.77;17.42;;;;;;;13.55;60.44;99531.91;5258757;28;20052;-70
2022/04/30 02:23:04;;;;;;;31.77;18.02;;;;;;;13.17;62.21;99533.75;5246851;28;20444;-70
2022/04/30 02:25:55;;;;;;;32.13;17.85;;;;;;;13.25;61.98;99524.22;5244577;28;20051;-70
2022/04/30 02:28:45;;;;;;;35.30;19.15;;;;;;;13.15;62.41;99538.41;5244804;28;20478;-70
2022/04/30 02:31:36;;;;;;;37.55;18.42;;;;;;;13.07;62.92;99543.59;5251461;28;20079;-71
2022/04/30 02:34:26;;;;;;;32.40;17.52;;;;;;;13.32;62.39;99535.97;5264120;28;20044;-71
2022/04/30 02:37:17;;;;;;;31.15;18.52;;;;;;;13.05;63.14;99542.91;5264580;28;20063;-70
2022/04/30 02:40:08;;;;;;;32.53;18.95;;;;;;;13.28;62.91;99534.59;5244747;28;20601;-70
2022/04/30 02:43:18;;;;;;;33.72;18.38;;;;;;;13.39;62.05;99532.56;5244457;28;20050;-70
2022/04/30 02:46:12;;;;;;;34.03;18.80;;;;;;;13.26;62.62;99520.56;5244368;28;20457;-70
2022/04/30 02:49:04;;;;;;;31.38;18.13;;;;;;;13.42;62.63;99544.75;5260152;28;20048;-71
2022/04/30 02:51:55;;;;;;;32.25;18.45;;;;;;;13.40;62.71;99544.03;5264203;28;20083;-69
2022/04/30 02:54:45;;;;;;;28.10;18.80;;;;;;;13.24;62.61;99527.81;5244446;28;20048;-73
2022/04/30 03:00:57;;;;;;;32.55;18.90;;;;;;;13.51;61.99;99527.00;5257476;28;20117;-72
2022/04/30 03:04:11;;;;;;;36.15;19.40;;;;;;;13.52;62.00;99528.72;5261429;28;20553;-72
2022/04/30 03:07:02;;;;;;;40.50;20.70;;;;;;;13.50;61.93;99534.16;5249725;28;20044;-70
2022/04/30 03:09:52;;;;;;;38.28;21.35;;;;;;;13.44;62.24;99516.09;5244148;28;20506;-70
2022/04/30 03:12:42;;;;;;;34.17;19.90;;;;;;;13.38;62.26;99514.06;5257098;28;20043;-71
2022/04/30 03:15:34;;;;;;;35.13;20.05;;;;;;;13.02;64.11;99532.56;5277400;28;20055;-70
2022/04/30 03:21:44;;;;;;;40.50;22.40;;;;;;;13.09;63.47;99499.03;5245291;28;20044;-72
2022/04/30 03:24:34;;;;;;;39.92;22.13;;;;;;;13.05;63.71;99529.59;5248404;28;20138;-72
2022/04/30 03:27:24;;;;;;;43.88;21.70;;;;;;;13.29;63.79;99525.59;5268500;28;20063;-71
2022/04/30 03:30:15;;;;;;;41.22;22.30;;;;;;;13.22;63.64;99509.34;5268385;28;20208;-71
2022/04/30 03:33:08;;;;;;;43.05;22.42;;;;;;;13.47;63.07;99534.47;5261240;28;20135;-70
2022/04/30 03:35:59;;;;;;;41.58;23.75;;;;;;;13.02;64.75;99540.56;5263963;28;20711;-70
2022/04/30 03:38:49;;;;;;;41.90;24.17;;;;;;;13.21;64.77;99539.63;5268456;28;20050;-70
2022/04/30 03:41:39;;;;;;;45.33;25.58;;;;;;;13.12;64.86;99536.03;5267885;28;20082;-70
2022/04/30 03:44:30;;;;;;;44.42;25.25;;;;;;;13.05;65.55;99537.59;5268182;28;20052;-70
2022/04/30 03:47:20;;;;;;;50.25;25.63;;;;;;;13.05;65.40;99545.59;5265963;28;20445;-70
2022/04/30 03:50:11;;;;;;;46.65;26.48;;;;;;;12.48;67.52;99535.91;5247720;28;20102;-70
2022/04/30 03:53:01;;;;;;;51.88;25.13;;;;;;;13.11;66.76;99553.00;5247780;28;20051;-70
2022/04/30 03:55:53;;;;;;;54.67;25.45;;;;;;;12.86;67.00;99550.97;5247605;28;20063;-70
2022/04/30 03:58:44;;;;;;;54.88;27.25;;;;;;;12.55;67.68;99553.84;5247787;28;20059;-70
2022/04/30 04:01:35;;;;;;;53.85;27.10;;;;;;;12.84;66.20;99542.28;5250686;28;20087;-70
2022/04/30 04:04:28;;;;;;;48.83;26.00;;;;;;;13.07;65.72;99562.22;5254429;28;20129;-70
2022/04/30 04:07:19;;;;;;;50.70;27.83;;;;;;;12.59;67.54;99570.38;5259035;28;20059;-70
2022/04/30 04:10:10;;;;;;;51.70;27.88;;;;;;;12.66;67.92;99569.63;5268226;28;20074;-70
2022/04/30 04:17:37;;;;;;;50.30;26.88;;;;;;;13.08;67.14;99571.09;5267764;28;20055;-70
2022/04/30 04:19:20;;;;;;;59.45;28.85;;;;;;;12.78;67.33;99572.13;5254342;28;20063;-70
2022/04/30 04:22:10;;;;;;;54.38;29.20;;;;;;;12.52;67.80;99572.75;5247348;28;20130;-70
2022/04/30 04:28:14;;;;;;;58.50;29.13;;;;;;;12.55;68.80;99584.91;5267524;28;20052;-71
2022/04/30 04:31:05;;;;;;;53.80;29.13;;;;;;;12.72;68.20;99570.91;5266918;28;20079;-72
2022/04/30 04:33:56;;;;;;;66.00;30.10;;;;;;;13.10;66.99;99583.25;5251778;28;20075;-70
2022/04/30 04:36:46;;;;;;;54.38;29.65;;;;;;;12.61;68.37;99587.84;5246918;28;20062;-70
2022/04/30 04:39:35;;;;;;;56.42;29.98;;;;;;;12.87;67.91;99588.06;5254372;28;20153;-70
2022/04/30 04:42:26;;;;;;;59.75;30.83;;;;;;;12.92;67.92;99582.34;5256984;28;20259;-70
2022/04/30 04:45:16;;;;;;;61.97;31.52;;;;;;;12.33;71.38;99583.41;5246774;28;20051;-70
2022/04/30 04:48:08;;;;;;;57.67;31.15;;;;;;;12.88;69.04;99576.47;5250959;28;20071;-70
2022/04/30 04:50:59;;;;;;;58.53;31.02;;;;;;;12.64;69.37;99584.06;5246465;28;20057;-70
2022/04/30 04:53:49;;;;;;;63.05;31.67;;;;;;;12.81;69.35;99583.31;5261519;28;20074;-70
2022/04/30 04:56:42;;;;;;;58.85;32.08;;;;;;;12.58;69.66;99584.63;5266639;28;20055;-71
2022/04/30 04:59:32;;;;;;;62.50;30.63;;;;;;;13.09;68.40;99581.56;5266814;28;20059;-71
2022/04/30 05:02:23;;;;;;;60.67;31.85;;;;;;;13.09;68.50;99581.56;5261610;28;20052;-70
2022/04/30 05:05:14;;;;;;;70.18;32.80;;;;;;;12.90;68.71;99578.97;5249188;28;20052;-71
2022/04/30 05:08:04;;;;;;;60.17;32.92;;;;;;;13.29;68.85;99610.81;5246352;28;20445;-71
2022/04/30 05:10:54;;;;;;;62.67;34.17;;;;;;;12.66;70.09;99617.53;5246091;28;20095;-70
2022/04/30 05:13:44;;;;;;;65.00;31.88;;;;;;;12.99;69.24;99604.72;5230802;28;20059;-71
2022/04/30 05:16:34;;;;;;;62.45;32.28;;;;;;;13.08;69.16;99609.19;5253105;28;20056;-70
2022/04/30 05:19:25;;;;;;;61.22;32.67;;;;;;;13.37;68.08;99621.56;5251838;28;20060;-70
2022/04/30 05:22:15;;;;;;;57.55;30.92;;;;;;;13.31;68.64;99615.03;5250784;28;20052;-70
2022/04/30 05:25:06;;;;;;;64.43;32.30;;;;;;;13.06;68.78;99619.13;5279633;28;20055;-70
2022/04/30 05:27:56;;;;;;;67.47;32.70;;;;;;;13.05;69.39;99620.13;5247679;28;20070;-72
2022/04/30 05:30:46;;;;;;;61.65;33.00;;;;;;;13.41;67.98;99607.00;5245762;28;20101;-72
2022/04/30 05:33:36;;;;;;;63.35;32.67;;;;;;;13.63;67.67;99627.06;5248502;28;20538;-74
2022/04/30 05:36:26;;;;;;;60.92;31.70;;;;;;;13.60;67.66;99624.69;5245872;28;20059;-71
2022/04/30 05:39:16;;;;;;;62.78;31.80;;;;;;;13.57;67.78;99620.50;5245938;28;20431;-72
2022/04/30 05:42:06;;;;;;;55.30;29.75;;;;;;;13.54;67.28;99625.28;5265625;28;20058;-73
2022/04/30 05:44:56;;;;;;;59.53;31.90;;;;;;;13.62;67.42;99625.41;5264887;28;20113;-72
2022/04/30 05:47:46;;;;;;;57.65;30.95;;;;;;;13.63;67.62;99627.91;5265469;28;20414;-72
2022/04/30 05:50:36;;;;;;;59.55;32.65;;;;;;;13.30;68.64;99623.16;5244949;28;20168;-69
2022/04/30 05:53:26;;;;;;;60.20;32.15;;;;;;;13.71;67.39;99636.97;5245327;28;20068;-72
2022/04/30 05:56:16;;;;;;;67.45;31.73;;;;;;;13.37;68.53;99640.22;5254016;28;20059;-71
2022/04/30 05:59:06;;;;;;;57.35;30.45;;;;;;;13.32;68.67;99645.16;5265708;28;20055;-72
2022/04/30 06:01:56;;;;;;;54.80;30.42;;;;;;;13.44;67.44;99620.00;5257876;28;20060;-69
2022/04/30 06:04:47;;;;;;;61.50;31.30;;;;;;;13.45;68.03;99653.66;5254545;28;20054;-70
2022/04/30 06:07:38;;;;;;;53.55;29.85;;;;;;;13.56;68.22;99661.47;5250670;28;20424;-71
2022/04/30 06:10:27;;;;;;;56.38;30.00;;;;;;;13.65;67.33;99656.25;5262136;28;20430;-71
2022/04/30 06:13:24;;;;;;;59.72;31.02;;;;;;;13.91;66.73;99657.25;5263318;28;20055;-71
2022/04/30 06:16:15;;;;;;;57.63;29.08;;;;;;;13.66;67.12;99655.25;5245012;28;20186;-71
2022/04/30 06:19:05;;;;;;;55.22;29.98;;;;;;;13.54;67.67;99659.91;5264260;28;20055;-71
2022/04/30 06:22:03;;;;;;;59.08;29.67;;;;;;;13.57;67.35;99651.63;5262403;28;20052;-72
2022/04/30 06:24:54;;;;;;;55.58;29.33;;;;;;;13.51;67.31;99653.09;5264156;28;20454;-69
2022/04/30 06:27:44;;;;;;;55.05;31.00;;;;;;;13.58;68.41;99664.84;5245264;28;20059;-70
2022/04/30 06:30:33;;;;;;;53.00;29.98;;;;;;;13.32;68.42;99651.31;5251642;28;20131;-71
2022/04/30 06:33:24;;;;;;;57.10;31.17;;;;;;;13.38;68.45;99663.22;5264108;28;20051;-70
2022/04/30 06:36:15;;;;;;;57.47;30.77;;;;;;;13.71;67.96;99666.31;5264775;28;20134;-69
2022/04/30 06:39:05;;;;;;;63.17;33.70;;;;;;;13.33;70.42;99668.13;5254432;28;20078;-69
2022/04/30 06:41:55;;;;;;;58.13;31.33;;;;;;;13.37;69.53;99657.03;5244379;28;20055;-70
2022/04/30 06:44:47;;;;;;;61.22;33.50;;;;;;;13.35;70.97;99661.69;5259988;28;20101;-70
2022/04/30 06:47:39;;;;;;;61.08;32.22;;;;;;;13.48;68.60;99649.88;5245818;28;20462;-70
2022/04/30 06:50:30;;;;;;;57.30;31.45;;;;;;;13.65;68.96;99659.75;5250963;28;20106;-70
2022/04/30 06:59:41;;;;;;;56.60;31.63;;;;;;;13.54;69.87;99660.78;5253798;28;20059;-70
2022/04/30 07:02:32;;;;;;;56.15;30.98;;;;;;;13.44;69.05;99665.28;5257616;28;20144;-69
2022/04/30 07:05:23;;;;;;;61.47;32.38;;;;;;;13.73;69.62;99662.50;5255848;28;20036;-71
2022/04/30 07:08:13;;;;;;;62.97;33.65;;;;;;;14.11;69.64;99663.28;5258609;28;20048;-69
2022/04/30 07:11:03;;;;;;;58.17;32.65;;;;;;;13.86;69.31;99667.50;5244295;28;20521;-70
2022/04/30 07:13:53;;;;;;;58.63;31.98;;;;;;;14.08;69.62;99663.59;5244430;28;20055;-69
2022/04/30 07:16:46;;;;;;;59.92;32.35;;;;;;;13.97;69.68;99664.66;5244195;28;20056;-70
2022/04/30 07:19:37;;;;;;;59.65;31.98;;;;;;;13.95;70.16;99671.94;5256161;28;20055;-69
2022/04/30 07:22:27;;;;;;;63.25;34.30;;;;;;;14.48;68.79;99668.50;5257304;28;20421;-69
2022/04/30 07:25:17;;;;;;;54.45;31.23;;;;;;;14.76;68.88;99671.09;5244393;28;20550;-74
2022/04/30 07:28:09;;;;;;;52.08;29.90;;;;;;;14.15;68.99;99675.34;5245229;28;20138;-69
2022/04/30 07:31:00;;;;;;;56.03;29.63;;;;;;;14.48;68.32;99687.19;5253227;28;20059;-70
2022/04/30 07:33:51;;;;;;;46.92;28.30;;;;;;;13.97;68.88;99672.66;5249198;28;20444;-69
2022/04/30 07:36:42;;;;;;;46.10;28.48;;;;;;;14.30;68.06;99681.84;5254358;28;20157;-71
2022/04/30 07:39:32;;;;;;;48.35;27.23;;;;;;;14.09;69.10;99682.09;5264004;28;20419;-68
2022/04/30 07:42:22;;;;;;;50.75;28.13;;;;;;;13.88;70.20;99680.69;5263964;28;20056;-70
2022/04/30 07:45:12;;;;;;;42.17;25.23;;;;;;;13.90;68.74;99692.03;5271106;28;20055;-69
2022/04/30 07:48:02;;;;;;;42.38;25.90;;;;;;;13.70;68.80;99681.44;5247068;28;20126;-69
2022/04/30 07:50:57;;;;;;;40.40;25.63;;;;;;;14.30;68.22;99680.97;5258970;28;20048;-69
2022/04/30 07:53:47;;;;;;;42.75;25.38;;;;;;;14.34;67.60;99680.53;5260368;28;20059;-69
2022/04/30 07:56:37;;;;;;;45.17;26.17;;;;;;;14.10;68.24;99680.25;5263515;28;20063;-68
2022/04/30 07:59:28;;;;;;;41.17;24.95;;;;;;;13.96;67.43;99684.28;5255989;28;20052;-69
2022/04/30 08:02:18;;;;;;;47.15;26.67;;;;;;;13.40;70.87;99690.53;5256423;28;20052;-70
2022/04/30 08:05:09;;;;;;;45.15;25.60;;;;;;;13.66;70.32;99684.56;5261801;28;20048;-71
2022/04/30 08:07:59;;;;;;;41.92;25.15;;;;;;;13.73;70.09;99688.31;5257769;28;20502;-70
2022/04/30 08:10:50;;;;;;;44.85;27.10;;;;;;;14.02;68.13;99680.19;5261900;28;20136;-70
2022/04/30 08:13:40;;;;;;;40.83;25.95;;;;;;;14.08;69.56;99698.25;5260318;28;20047;-70
2022/04/30 08:16:30;;;;;;;37.78;24.08;;;;;;;13.49;69.30;99687.00;5264785;28;20423;-70
2022/04/30 08:19:21;;;;;;;40.00;25.80;;;;;;;13.94;68.86;99699.59;5261258;28;20052;-69
2022/04/30 08:22:11;;;;;;;44.85;25.35;;;;;;;13.39;68.96;99692.38;5272460;28;20050;-70
2022/04/30 08:25:04;;;;;;;40.65;24.98;;;;;;;13.72;69.34;99687.50;5258129;28;20040;-70
2022/04/30 08:27:54;;;;;;;41.10;25.35;;;;;;;13.59;69.78;99701.13;5247428;28;20824;-70
2022/04/30 08:30:45;;;;;;;43.83;25.63;;;;;;;14.00;69.75;99706.16;5261717;28;20051;-70
2022/04/30 08:33:36;;;;;;;39.97;25.42;;;;;;;13.45;70.46;99701.63;5266453;28;20043;-69
2022/04/30 08:36:26;;;;;;;37.28;24.20;;;;;;;13.88;68.49;99707.34;5247209;28;20056;-68
2022/04/30 08:39:16;;;;;;;36.72;23.88;;;;;;;13.50;69.25;99693.19;5263026;28;20060;-69
2022/04/30 08:42:07;;;;;;;43.78;26.65;;;;;;;14.21;68.67;99704.06;5260650;28;20193;-68
2022/04/30 08:44:57;;;;;;;41.92;25.50;;;;;;;13.76;70.62;99707.53;5257452;28;20043;-69
2022/04/30 08:47:48;;;;;;;36.22;25.63;;;;;;;12.94;71.73;99702.78;5261483;28;20059;-69
2022/04/30 08:50:40;;;;;;;44.08;25.30;;;;;;;12.88;72.43;99708.66;5262155;28;20056;-69
2022/04/30 08:53:30;;;;;;;43.45;26.50;;;;;;;12.88;72.78;99700.69;5250114;28;20051;-69
2022/04/30 08:56:21;;;;;;;42.28;26.13;;;;;;;13.22;71.63;99698.41;5246642;28;20055;-69
2022/04/30 08:59:11;;;;;;;38.63;23.58;;;;;;;13.07;71.21;99703.34;5246674;28;20055;-68
2022/04/30 09:02:11;;;;;;;40.97;25.45;;;;;;;13.72;69.51;99694.66;5246934;28;20526;-70
2022/04/30 09:05:02;;;;;;;40.22;24.58;;;;;;;13.23;70.90;99693.94;5256819;28;20550;-68
2022/04/30 09:07:57;;;;;;;42.63;25.40;;;;;;;13.58;69.83;99691.47;5242795;28;20082;-69
2022/04/30 09:10:48;;;;;;;38.08;22.92;;;;;;;13.48;69.18;99697.84;5245414;28;20526;-68
2022/04/30 09:13:43;;;;;;;35.47;22.73;;;;;;;13.41;69.67;99694.91;5246389;28;20520;-68
2022/04/30 09:16:34;;;;;;;34.33;24.38;;;;;;;13.58;69.89;99690.63;5245717;28;20055;-68
2022/04/30 09:19:24;;;;;;;34.17;22.95;;;;;;;13.51;69.97;99703.72;5260203;28;20071;-68
2022/04/30 09:22:16;;;;;;;38.05;23.15;;;;;;;13.97;69.32;99701.97;5259194;28;20044;-69
2022/04/30 09:25:15;;;;;;;35.50;22.48;;;;;;;13.52;69.80;99702.72;5261085;28;20573;-69
2022/04/30 09:28:28;;;;;;;36.40;21.77;;;;;;;12.64;73.84;99698.47;5246545;28;20182;-69
2022/04/30 09:31:20;;;;;;;30.80;21.75;;;;;;;13.25;70.85;99686.69;5245862;28;20063;-69
2022/04/30 09:37:41;;;;;;;32.10;21.67;;;;;;;13.14;72.69;99695.63;5249853;28;20052;-71
2022/04/30 09:40:34;;;;;;;29.58;19.30;;;;;;;13.57;69.75;99679.13;5265169;28;20063;-69
2022/04/30 09:43:33;;;;;;;28.80;17.88;;;;;;;14.12;67.99;99698.81;5265609;28;20141;-69
2022/04/30 09:46:28;;;;;;;20.90;14.30;;;;;;;13.19;69.01;99705.84;5269970;28;20656;-70
2022/04/30 09:55:40;;;;;;;22.17;15.48;;;;;;;12.97;70.36;99707.84;5263299;28;20129;-68
2022/04/30 09:58:35;;;;;;;21.40;15.23;;;;;;;13.70;69.64;99699.28;5262855;28;20133;-68
2022/04/30 10:01:30;;;;;;;17.05;12.30;;;;;;;13.07;69.21;99700.66;5264820;28;20054;-68
2022/04/30 10:04:20;;;;;;;15.50;10.55;;;;;;;13.01;68.33;99695.91;5258657;28;20177;-69
2022/04/30 10:07:11;;;;;;;15.02;11.23;;;;;;;13.68;68.15;99695.94;5265202;28;20078;-69
2022/04/30 10:10:18;;;;;;;13.55;9.07;;;;;;;14.16;65.36;99710.84;5263948;28;20059;-67
2022/04/30 10:13:44;;;;;;;14.15;9.88;;;;;;;13.95;65.97;99703.94;5258613;28;20178;-67
2022/04/30 10:16:34;;;;;;;16.38;11.05;;;;;;;13.94;66.72;99704.06;5257890;28;20054;-68
2022/04/30 10:19:25;;;;;;;14.43;10.20;;;;;;;13.50;67.86;99704.66;5245323;28;20414;-67
2022/04/30 10:22:16;;;;;;;15.70;10.60;;;;;;;13.66;66.26;99697.91;5244538;28;20051;-68
2022/04/30 10:25:08;;;;;;;16.25;10.85;;;;;;;13.58;67.12;99702.13;5244401;28;20189;-67
2022/04/30 10:27:58;;;;;;;15.70;12.45;;;;;;;13.62;67.10;99697.34;5244305;28;20048;-67
2022/04/30 10:30:59;;;;;;;15.23;11.13;;;;;;;13.53;68.53;99703.53;5257750;28;20051;-69
2022/04/30 10:33:50;;;;;;;18.33;12.57;;;;;;;13.51;69.21;99703.72;5257786;28;20048;-69
2022/04/30 10:36:40;;;;;;;16.10;11.63;;;;;;;13.11;68.16;99678.13;5259310;28;20059;-68
2022/04/30 10:39:31;;;;;;;15.05;10.30;;;;;;;12.42;70.08;99680.97;5245013;28;20056;-68
2022/04/30 10:42:45;;;;;;;14.68;11.27;;;;;;;13.22;69.34;99701.09;5251073;28;20051;-68
2022/04/30 10:45:35;;;;;;;15.68;11.50;;;;;;;12.86;70.29;99700.00;5255268;28;20563;-68
2022/04/30 10:48:27;;;;;;;15.65;11.27;;;;;;;13.44;68.69;99697.25;5256875;28;20082;-68
2022/04/30 10:51:40;;;;;;;14.52;11.27;;;;;;;12.94;71.04;99697.47;5256092;28;20053;-68
2022/04/30 10:54:33;;;;;;;17.95;11.68;;;;;;;13.19;68.67;99698.69;5255858;28;20067;-67
2022/04/30 10:57:23;;;;;;;18.77;12.35;;;;;;;13.10;70.42;99705.72;5253094;28;20045;-68
2022/04/30 11:00:15;;;;;;;12.65;9.57;;;;;;;12.39;71.06;99703.34;5242629;28;20188;-67
2022/04/30 11:03:10;;;;;;;11.80;8.43;;;;;;;12.36;70.89;99700.13;5243654;28;20568;-67
2022/04/30 11:06:01;;;;;;;12.90;9.45;;;;;;;12.69;69.62;99691.75;5244159;28;20398;-68
2022/04/30 11:09:09;;;;;;;14.13;10.45;;;;;;;12.64;70.76;99693.97;5243622;28;20418;-70
2022/04/30 11:12:00;;;;;;;10.93;8.95;;;;;;;12.44;71.51;99695.78;5250868;28;20056;-66
2022/04/30 11:14:54;;;;;;;10.82;9.40;;;;;;;13.16;69.14;99697.16;5253374;28;20048;-68
2022/04/30 11:17:46;;;;;;;12.80;9.38;;;;;;;13.11;69.98;99695.91;5243475;28;20059;-68
2022/04/30 11:20:37;;;;;;;11.50;9.07;;;;;;;12.98;69.83;99698.88;5255438;28;20118;-67
2022/04/30 11:23:28;;;;;;;10.73;8.80;;;;;;;13.41;68.57;99692.25;5245731;28;20420;-67
2022/04/30 11:26:19;;;;;;;12.48;8.65;;;;;;;13.44;69.51;99683.94;5257493;28;20689;-71
2022/04/30 11:29:10;;;;;;;12.70;8.48;;;;;;;13.34;69.58;99691.13;5263855;28;20433;-68
2022/04/30 11:32:00;;;;;;;10.77;7.45;;;;;;;13.11;68.54;99686.13;5261834;28;20135;-70
2022/04/30 11:34:53;;;;;;;8.70;7.00;;;;;;;13.47;67.90;99691.63;5257848;28;20045;-69
2022/04/30 11:37:43;;;;;;;7.13;5.97;;;;;;;13.14;68.03;99691.16;5257785;28;20064;-69
2022/04/30 11:40:34;;;;;;;6.78;5.93;;;;;;;13.27;66.57;99674.88;5254242;28;20060;-70
2022/04/30 11:43:24;;;;;;;7.90;6.25;;;;;;;13.01;68.42;99689.75;5261071;28;20085;-69
2022/04/30 11:46:14;;;;;;;8.05;5.70;;;;;;;13.47;66.88;99686.31;5247479;28;20131;-69
2022/04/30 11:49:14;;;;;;;6.20;5.60;;;;;;;13.54;67.22;99684.78;5247680;28;20048;-71
2022/04/30 11:52:24;;;;;;;7.82;6.18;;;;;;;13.46;69.42;99679.31;5251962;28;20073;-72
2022/04/30 11:55:15;;;;;;;7.53;6.30;;;;;;;13.85;67.26;99681.81;5247021;28;20055;-69
2022/04/30 11:58:05;;;;;;;6.18;5.05;;;;;;;14.19;64.54;99674.03;5247443;28;20165;-71
2022/04/30 12:01:25;;;;;;;8.13;5.65;;;;;;;14.52;64.83;99677.06;5247192;28;20060;-70
2022/04/30 12:04:15;;;;;;;9.45;6.68;;;;;;;14.61;64.14;99689.50;5262583;28;20055;-70
2022/04/30 12:07:07;;;;;;;7.78;5.18;;;;;;;14.13;65.20;99687.13;5261585;28;20045;-70
2022/04/30 12:09:59;;;;;;;8.63;5.13;;;;;;;14.13;64.70;99684.47;5262276;28;20048;-69
2022/04/30 12:12:52;;;;;;;6.93;5.03;;;;;;;14.63;63.85;99682.16;5267239;28;20051;-70
2022/04/30 12:15:44;;;;;;;6.03;5.43;;;;;;;13.68;66.70;99691.44;5267309;28;20071;-69
2022/04/30 12:24:56;;;;;;;6.85;5.40;;;;;;;14.20;64.39;99680.22;5262430;28;20052;-67
2022/04/30 12:27:55;;;;;;;7.03;5.00;;;;;;;14.29;64.92;99671.31;5266998;28;20753;-67
2022/04/30 12:31:09;;;;;;;7.40;6.05;;;;;;;14.55;62.82;99669.59;5265888;28;20048;-67
2022/04/30 12:34:00;;;;;;;6.70;5.97;;;;;;;14.71;62.55;99662.75;5260063;28;20083;-68
2022/04/30 12:36:52;;;;;;;7.68;6.75;;;;;;;14.69;63.06;99659.38;5257430;28;20593;-67
2022/04/30 12:39:42;;;;;;;7.35;6.60;;;;;;;14.12;64.33;99659.63;5259493;28;20056;-67
2022/04/30 12:42:34;;;;;;;10.80;7.85;;;;;;;14.10;63.87;99665.13;5260446;28;20047;-70
2022/04/30 12:45:25;;;;;;;11.10;8.75;;;;;;;13.84;64.52;99675.66;5277429;28;20113;-68
2022/04/30 12:48:15;;;;;;;11.63;9.77;;;;;;;14.39;63.49;99664.06;5259104;28;20054;-67
2022/04/30 12:51:06;;;;;;;14.23;10.13;;;;;;;14.36;63.10;99663.53;5260009;28;20055;-67
2022/04/30 12:53:56;;;;;;;15.93;10.68;;;;;;;14.20;62.84;99666.88;5262076;28;20051;-67
2022/04/30 12:56:47;;;;;;;13.93;10.05;;;;;;;14.02;62.21;99662.34;5262326;28;20062;-67
2022/04/30 12:59:37;;;;;;;13.98;10.50;;;;;;;13.70;63.19;99664.63;5263236;28;20054;-68
2022/04/30 13:02:29;;;;;;;15.05;11.15;;;;;;;14.03;63.00;99653.34;5262997;28;20090;-69
2022/04/30 13:05:20;;;;;;;14.00;11.02;;;;;;;13.92;63.72;99655.41;5258244;28;20106;-67
2022/04/30 13:08:11;;;;;;;18.77;11.50;;;;;;;13.68;64.47;99661.28;5257734;28;20063;-67
2022/04/30 13:14:10;;;;;;;16.48;11.85;;;;;;;13.65;64.67;99654.41;5258980;28;20652;-67
2022/04/30 13:17:00;;;;;;;22.13;13.55;;;;;;;14.13;64.11;99657.81;5257059;28;20188;-67
2022/04/30 13:19:53;;;;;;;19.35;12.45;;;;;;;13.84;64.52;99658.78;5261748;28;20054;-66
2022/04/30 13:22:43;;;;;;;16.95;11.80;;;;;;;13.56;65.75;99660.63;5259400;28;20048;-66
2022/04/30 13:25:33;;;;;;;15.50;12.35;;;;;;;13.23;65.74;99659.31;5261472;28;20055;-65
2022/04/30 13:28:23;;;;;;;17.67;12.80;;;;;;;13.79;63.88;99661.91;5262417;28;20047;-67
2022/04/30 13:31:13;;;;;;;17.85;12.65;;;;;;;14.00;63.49;99650.16;5259924;28;20063;-68
2022/04/30 13:34:04;;;;;;;18.35;13.45;;;;;;;13.86;62.84;99627.50;5260627;28;20048;-66
2022/04/30 13:36:55;;;;;;;17.88;12.65;;;;;;;13.66;64.29;99658.75;5256879;28;20080;-68
2022/04/30 13:39:45;;;;;;;18.13;13.23;;;;;;;13.67;63.46;99635.59;5251574;28;20506;-68
2022/04/30 13:42:43;;;;;;;19.02;13.55;;;;;;;13.87;64.18;99655.84;5252037;28;20507;-67
2022/04/30 13:45:33;;;;;;;18.65;14.45;;;;;;;13.86;65.19;99641.69;5265215;28;20500;-70
2022/04/30 13:48:24;;;;;;;16.48;13.65;;;;;;;14.33;63.65;99643.34;5263240;28;20059;-67
2022/04/30 13:51:16;;;;;;;15.48;12.70;;;;;;;13.37;64.89;99657.03;5257232;28;20055;-68
2022/04/30 13:54:06;;;;;;;17.65;12.88;;;;;;;12.99;66.64;99652.63;5251924;28;20044;-67
2022/04/30 13:56:56;;;;;;;18.13;13.65;;;;;;;13.73;65.81;99651.84;5244807;28;20041;-66
2022/04/30 13:59:47;;;;;;;17.92;13.88;;;;;;;13.42;64.82;99640.63;5252105;28;20091;-67
2022/04/30 14:02:39;;;;;;;18.67;14.13;;;;;;;13.23;65.62;99643.34;5260747;28;20063;-66